sensor_id;sensor_type;location;lat;lon;timestamp;pressure;altitude;pressure_sealevel;temperature;humidity
21504;BME280;10913;51.992;9.228;2023-04-20T00:01:54;100735.66;;;9.04;74.93
21504;BME280;10913;51.992;9.228;2023-04-20T00:04:21;100731.31;;;9.11;75.34
21504;BME280;10913;51.992;9.228;2023-04-20T00:06:46;100728.66;;;9.09;77.26
21504;BME280;10913;51.992;9.228;2023-04-20T00:09:12;100738.31;;;9.07;77.46
21504;BME280;10913;51.992;9.228;2023-04-20T00:11:38;100737.41;;;9.02;78.49
21504;BME280;10913;51.992;9.228;2023-04-20T00:14:04;100737.28;;;8.84;80.36
21504;BME280;10913;51.992;9.228;2023-04-20T00:16:29;100730.22;;;8.80;81.02
21504;BME280;10913;51.992;9.228;2023-04-20T00:18:55;100724.91;;;8.74;80.40
21504;BME280;10913;51.992;9.228;2023-04-20T00:21:20;100724.84;;;8.66;81.76
21504;BME280;10913;51.992;9.228;2023-04-20T00:23:48;100719.53;;;8.61;82.14
21504;BME280;10913;51.992;9.228;2023-04-20T00:26:14;100721.28;;;8.59;82.82
21504;BME280;10913;51.992;9.228;2023-04-20T00:28:39;100720.44;;;8.59;83.42
21504;BME280;10913;51.992;9.228;2023-04-20T00:31:05;100724.75;;;8.54;83.63
21504;BME280;10913;51.992;9.228;2023-04-20T00:33:30;100715.88;;;8.44;83.89
21504;BME280;10913;51.992;9.228;2023-04-20T00:35:55;100710.56;;;8.35;84.81
21504;BME280;10913;51.992;9.228;2023-04-20T00:38:21;100707.81;;;8.27;85.25
21504;BME280;10913;51.992;9.228;2023-04-20T00:40:46;100710.38;;;8.20;85.60
21504;BME280;10913;51.992;9.228;2023-04-20T00:43:17;100714.72;;;8.13;86.93
21504;BME280;10913;51.992;9.228;2023-04-20T00:45:44;100701.50;;;8.09;86.17
21504;BME280;10913;51.992;9.228;2023-04-20T00:48:10;100704.09;;;8.06;86.58
21504;BME280;10913;51.992;9.228;2023-04-20T00:50:36;100705.00;;;8.09;86.21
21504;BME280;10913;51.992;9.228;2023-04-20T00:53:02;100698.91;;;8.12;85.75
21504;BME280;10913;51.992;9.228;2023-04-20T00:55:28;100698.91;;;8.12;86.56
21504;BME280;10913;51.992;9.228;2023-04-20T00:57:54;100703.25;;;8.10;86.78
21504;BME280;10913;51.992;9.228;2023-04-20T01:00:20;100698.88;;;8.09;87.45
21504;BME280;10913;51.992;9.228;2023-04-20T01:02:46;100697.97;;;8.07;87.52
21504;BME280;10913;51.992;9.228;2023-04-20T01:05:12;100696.13;;;8.00;87.82
21504;BME280;10913;51.992;9.228;2023-04-20T01:07:37;100696.13;;;8.00;88.08
21504;BME280;10913;51.992;9.228;2023-04-20T01:10:04;100691.75;;;7.99;87.78
21504;BME280;10913;51.992;9.228;2023-04-20T01:12:30;100683.84;;;7.95;88.40
21504;BME280;10913;51.992;9.228;2023-04-20T01:14:55;100682.06;;;7.94;89.07
21504;BME280;10913;51.992;9.228;2023-04-20T01:17:21;100674.13;;;7.90;89.73
21504;BME280;10913;51.992;9.228;2023-04-20T01:19:48;100677.66;;;7.92;89.06
21504;BME280;10913;51.992;9.228;2023-04-20T01:22:20;100664.50;;;7.90;88.60
21504;BME280;10913;51.992;9.228;2023-04-20T01:24:46;100680.28;;;7.92;88.61
21504;BME280;10913;51.992;9.228;2023-04-20T01:27:12;100671.47;;;7.88;89.83
21504;BME280;10913;51.992;9.228;2023-04-20T01:29:40;100663.53;;;7.84;89.81
21504;BME280;10913;51.992;9.228;2023-04-20T01:32:05;100670.47;;;7.76;90.55
21504;BME280;10913;51.992;9.228;2023-04-20T01:34:31;100671.25;;;7.67;90.64
21504;BME280;10913;51.992;9.228;2023-04-20T01:36:56;100664.22;;;7.66;90.53
21504;BME280;10913;51.992;9.228;2023-04-20T01:39:22;100666.00;;;7.69;90.72
21504;BME280;10913;51.992;9.228;2023-04-20T01:41:47;100666.88;;;7.68;90.87
21504;BME280;10913;51.992;9.228;2023-04-20T01:44:13;100666.00;;;7.69;90.68
21504;BME280;10913;51.992;9.228;2023-04-20T01:46:38;100665.94;;;7.64;90.89
21504;BME280;10913;51.992;9.228;2023-04-20T01:49:05;100666.78;;;7.61;91.19
21504;BME280;10913;51.992;9.228;2023-04-20T01:51:31;100660.66;;;7.58;90.98
21504;BME280;10913;51.992;9.228;2023-04-20T01:54:00;100650.97;;;7.54;91.47
21504;BME280;10913;51.992;9.228;2023-04-20T01:56:26;100650.91;;;7.51;91.95
21504;BME280;10913;51.992;9.228;2023-04-20T01:58:51;100644.75;;;7.49;91.50
21504;BME280;10913;51.992;9.228;2023-04-20T02:01:17;100651.78;;;7.50;92.25
21504;BME280;10913;51.992;9.228;2023-04-20T02:03:42;100649.16;;;7.51;92.85
21504;BME280;10913;51.992;9.228;2023-04-20T02:06:07;100645.56;;;7.43;93.24
21504;BME280;10913;51.992;9.228;2023-04-20T02:08:33;100659.53;;;7.38;92.92
21504;BME280;10913;51.992;9.228;2023-04-20T02:10:59;100651.66;;;7.38;92.99
21504;BME280;10913;51.992;9.228;2023-04-20T02:13:24;100645.53;;;7.40;92.73
21504;BME280;10913;51.992;9.228;2023-04-20T02:15:50;100649.03;;;7.41;93.12
21504;BME280;10913;51.992;9.228;2023-04-20T02:18:16;100647.25;;;7.40;92.71
21504;BME280;10913;51.992;9.228;2023-04-20T02:20:46;100636.78;;;7.41;93.17
21504;BME280;10913;51.992;9.228;2023-04-20T02:23:11;100629.78;;;7.43;93.48
21504;BME280;10913;51.992;9.228;2023-04-20T02:25:37;100640.34;;;7.46;93.17
21504;BME280;10913;51.992;9.228;2023-04-20T02:28:03;100627.13;;;7.42;94.52
21504;BME280;10913;51.992;9.228;2023-04-20T02:30:28;100621.03;;;7.43;93.79
21504;BME280;10913;51.992;9.228;2023-04-20T02:32:54;100626.25;;;7.40;93.66
21504;BME280;10913;51.992;9.228;2023-04-20T02:35:19;100628.88;;;7.38;93.71
21504;BME280;10913;51.992;9.228;2023-04-20T02:37:45;100622.72;;;7.36;94.19
21504;BME280;10913;51.992;9.228;2023-04-20T02:40:11;100616.63;;;7.39;93.94
21504;BME280;10913;51.992;9.228;2023-04-20T02:42:36;100614.88;;;7.41;94.00
21504;BME280;10913;51.992;9.228;2023-04-20T02:45:02;100614.03;;;7.43;94.20
21504;BME280;10913;51.992;9.228;2023-04-20T02:47:28;100598.22;;;7.40;94.14
21504;BME280;10913;51.992;9.228;2023-04-20T02:49:53;100614.03;;;7.43;93.56
21504;BME280;10913;51.992;9.228;2023-04-20T02:52:18;100614.88;;;7.41;93.74
21504;BME280;10913;51.992;9.228;2023-04-20T02:54:44;100609.63;;;7.39;94.16
21504;BME280;10913;51.992;9.228;2023-04-20T02:57:09;100611.34;;;7.40;93.32
21504;BME280;10913;51.992;9.228;2023-04-20T02:59:36;100599.13;;;7.44;93.09
21504;BME280;10913;51.992;9.228;2023-04-20T03:02:01;100585.09;;;7.42;93.53
21504;BME280;10913;51.992;9.228;2023-04-20T03:04:27;100599.09;;;7.38;94.00
21504;BME280;10913;51.992;9.228;2023-04-20T03:06:52;100577.19;;;7.37;94.02
21504;BME280;10913;51.992;9.228;2023-04-20T03:09:18;100585.88;;;7.33;94.83
21504;BME280;10913;51.992;9.228;2023-04-20T03:11:44;100582.28;;;7.25;95.24
21504;BME280;10913;51.992;9.228;2023-04-20T03:14:10;100590.19;;;7.28;94.44
21504;BME280;10913;51.992;9.228;2023-04-20T03:16:35;100584.03;;;7.26;94.52
21504;BME280;10913;51.992;9.228;2023-04-20T03:19:00;100584.84;;;7.20;95.40
21504;BME280;10913;51.992;9.228;2023-04-20T03:21:26;100583.97;;;7.17;95.50
21504;BME280;10913;51.992;9.228;2023-04-20T03:23:51;100583.00;;;7.10;96.71
21504;BME280;10913;51.992;9.228;2023-04-20T03:26:17;100594.41;;;7.12;95.65
21504;BME280;10913;51.992;9.228;2023-04-20T03:28:42;100588.25;;;7.10;96.52
21504;BME280;10913;51.992;9.228;2023-04-20T03:31:08;100597.91;;;7.13;96.25
21504;BME280;10913;51.992;9.228;2023-04-20T03:33:33;100590.91;;;7.13;96.54
21504;BME280;10913;51.992;9.228;2023-04-20T03:35:58;100589.16;;;7.14;96.18
21504;BME280;10913;51.992;9.228;2023-04-20T03:38:24;100589.22;;;7.17;95.49
21504;BME280;10913;51.992;9.228;2023-04-20T03:40:49;100594.47;;;7.17;96.11
21504;BME280;10913;51.992;9.228;2023-04-20T03:43:15;100593.53;;;7.13;96.68
21504;BME280;10913;51.992;9.228;2023-04-20T03:45:40;100585.66;;;7.12;96.70
21504;BME280;10913;51.992;9.228;2023-04-20T03:48:05;100585.63;;;7.10;97.34
21504;BME280;10913;51.992;9.228;2023-04-20T03:50:31;100590.91;;;7.12;96.21
21504;BME280;10913;51.992;9.228;2023-04-20T03:52:56;100589.16;;;7.14;96.44
21504;BME280;10913;51.992;9.228;2023-04-20T03:55:22;100589.16;;;7.12;96.62
21504;BME280;10913;51.992;9.228;2023-04-20T03:57:47;100586.53;;;7.14;96.13
21504;BME280;10913;51.992;9.228;2023-04-20T04:00:13;100583.97;;;7.17;95.64
21504;BME280;10913;51.992;9.228;2023-04-20T04:02:38;100573.44;;;7.17;95.87
21504;BME280;10913;51.992;9.228;2023-04-20T04:05:04;100583.09;;;7.18;95.95
21504;BME280;10913;51.992;9.228;2023-04-20T04:07:29;100579.59;;;7.17;95.81
21504;BME280;10913;51.992;9.228;2023-04-20T04:09:55;100583.97;;;7.17;96.75
21504;BME280;10913;51.992;9.228;2023-04-20T04:12:20;100587.41;;;7.13;96.69
21504;BME280;10913;51.992;9.228;2023-04-20T04:14:46;100590.09;;;7.17;95.70
21504;BME280;10913;51.992;9.228;2023-04-20T04:17:13;100583.94;;;7.15;96.42
21504;BME280;10913;51.992;9.228;2023-04-20T04:19:38;100572.56;;;7.16;96.13
21504;BME280;10913;51.992;9.228;2023-04-20T04:22:04;100585.72;;;7.18;96.11
21504;BME280;10913;51.992;9.228;2023-04-20T04:24:29;100579.56;;;7.16;97.12
21504;BME280;10913;51.992;9.228;2023-04-20T04:26:55;100585.69;;;7.15;96.39
21504;BME280;10913;51.992;9.228;2023-04-20T04:29:23;100595.31;;;7.14;96.36
21504;BME280;10913;51.992;9.228;2023-04-20T04:31:51;100580.44;;;7.15;96.65
21504;BME280;10913;51.992;9.228;2023-04-20T04:34:16;100583.88;;;7.11;97.40
21504;BME280;10913;51.992;9.228;2023-04-20T04:36:42;100583.00;;;7.12;96.98
21504;BME280;10913;51.992;9.228;2023-04-20T04:39:08;100584.75;;;7.11;97.17
21504;BME280;10913;51.992;9.228;2023-04-20T04:41:33;100586.44;;;7.06;97.65
21504;BME280;10913;51.992;9.228;2023-04-20T04:43:59;100579.47;;;7.10;97.09
21504;BME280;10913;51.992;9.228;2023-04-20T04:46:25;100582.91;;;7.04;98.15
21504;BME280;10913;51.992;9.228;2023-04-20T04:48:51;100578.50;;;7.02;98.12
21504;BME280;10913;51.992;9.228;2023-04-20T04:51:17;100572.38;;;7.01;98.60
21504;BME280;10913;51.992;9.228;2023-04-20T04:53:42;100579.38;;;6.99;98.77
21504;BME280;10913;51.992;9.228;2023-04-20T04:56:11;100594.25;;;7.00;98.67
21504;BME280;10913;51.992;9.228;2023-04-20T04:58:37;100591.66;;;7.03;98.49
21504;BME280;10913;51.992;9.228;2023-04-20T05:01:03;100597.81;;;7.05;98.01
21504;BME280;10913;51.992;9.228;2023-04-20T05:03:28;100591.75;;;7.09;97.35
21504;BME280;10913;51.992;9.228;2023-04-20T05:05:54;100588.28;;;7.12;98.03
21504;BME280;10913;51.992;9.228;2023-04-20T05:08:20;100595.28;;;7.13;98.09
21504;BME280;10913;51.992;9.228;2023-04-20T05:10:48;100595.34;;;7.16;97.51
21504;BME280;10913;51.992;9.228;2023-04-20T05:13:14;100588.34;;;7.18;97.61
21504;BME280;10913;51.992;9.228;2023-04-20T05:15:39;100591.94;;;7.28;96.83
21504;BME280;10913;51.992;9.228;2023-04-20T05:18:05;100585.75;;;7.22;97.50
21504;BME280;10913;51.992;9.228;2023-04-20T05:20:30;100597.13;;;7.21;97.99
21504;BME280;10913;51.992;9.228;2023-04-20T05:22:55;100591.88;;;7.23;97.65
21504;BME280;10913;51.992;9.228;2023-04-20T05:25:21;100594.47;;;7.20;97.38
21504;BME280;10913;51.992;9.228;2023-04-20T05:27:46;100589.25;;;7.23;97.03
21504;BME280;10913;51.992;9.228;2023-04-20T05:30:12;100591.16;;;7.33;97.16
21504;BME280;10913;51.992;9.228;2023-04-20T05:32:37;100586.88;;;7.44;96.35
21504;BME280;10913;51.992;9.228;2023-04-20T05:35:02;100589.56;;;7.49;95.79
21504;BME280;10913;51.992;9.228;2023-04-20T05:37:28;100593.94;;;7.50;95.80
21504;BME280;10913;51.992;9.228;2023-04-20T05:39:53;100605.38;;;7.52;95.18
21504;BME280;10913;51.992;9.228;2023-04-20T05:42:19;100595.72;;;7.51;94.99
21504;BME280;10913;51.992;9.228;2023-04-20T05:44:44;100605.31;;;7.47;95.73
21504;BME280;10913;51.992;9.228;2023-04-20T05:47:09;100596.53;;;7.47;95.69
21504;BME280;10913;51.992;9.228;2023-04-20T05:49:35;100595.63;;;7.45;96.53
21504;BME280;10913;51.992;9.228;2023-04-20T05:52:01;100606.13;;;7.42;96.13
21504;BME280;10913;51.992;9.228;2023-04-20T05:54:26;100603.53;;;7.45;94.84
21504;BME280;10913;51.992;9.228;2023-04-20T05:56:55;100604.44;;;7.47;95.27
21504;BME280;10913;51.992;9.228;2023-04-20T05:59:22;100606.19;;;7.48;95.36
21504;BME280;10913;51.992;9.228;2023-04-20T06:01:48;100607.06;;;7.48;95.78
21504;BME280;10913;51.992;9.228;2023-04-20T06:04:13;100607.88;;;7.43;95.60
21504;BME280;10913;51.992;9.228;2023-04-20T06:06:39;100614.00;;;7.42;96.44
21504;BME280;10913;51.992;9.228;2023-04-20T06:09:04;100613.09;;;7.37;96.19
21504;BME280;10913;51.992;9.228;2023-04-20T06:11:30;100616.53;;;7.33;96.58
21504;BME280;10913;51.992;9.228;2023-04-20T06:13:56;100610.44;;;7.34;96.58
21504;BME280;10913;51.992;9.228;2023-04-20T06:16:21;100611.31;;;7.36;96.78
21504;BME280;10913;51.992;9.228;2023-04-20T06:18:46;100621.88;;;7.40;96.63
21504;BME280;10913;51.992;9.228;2023-04-20T06:21:12;100622.81;;;7.45;96.61
21504;BME280;10913;51.992;9.228;2023-04-20T06:23:37;100625.34;;;7.36;95.73
21504;BME280;10913;51.992;9.228;2023-04-20T06:26:03;100634.88;;;7.28;96.11
21504;BME280;10913;51.992;9.228;2023-04-20T06:28:32;100618.13;;;7.17;97.43
21504;BME280;10913;51.992;9.228;2023-04-20T06:30:57;100629.44;;;7.13;97.39
21504;BME280;10913;51.992;9.228;2023-04-20T06:33:23;100637.22;;;7.07;98.12
21504;BME280;10913;51.992;9.228;2023-04-20T06:35:48;100638.94;;;7.03;97.90
21504;BME280;10913;51.992;9.228;2023-04-20T06:38:15;100632.81;;;7.04;98.34
21504;BME280;10913;51.992;9.228;2023-04-20T06:40:41;100632.81;;;7.04;99.21
21504;BME280;10913;51.992;9.228;2023-04-20T06:43:06;100632.00;;;7.08;98.14
21504;BME280;10913;51.992;9.228;2023-04-20T06:45:32;100635.53;;;7.10;98.26
21504;BME280;10913;51.992;9.228;2023-04-20T06:47:58;100635.50;;;7.07;97.62
21504;BME280;10913;51.992;9.228;2023-04-20T06:50:23;100636.41;;;7.11;97.67
21504;BME280;10913;51.992;9.228;2023-04-20T06:52:48;100641.72;;;7.14;98.23
21504;BME280;10913;51.992;9.228;2023-04-20T06:55:14;100632.91;;;7.10;98.16
21504;BME280;10913;51.992;9.228;2023-04-20T06:57:39;100625.94;;;7.12;98.03
21504;BME280;10913;51.992;9.228;2023-04-20T07:00:08;100619.78;;;7.12;96.44
21504;BME280;10913;51.992;9.228;2023-04-20T07:02:47;100623.34;;;7.15;96.52
21504;BME280;10913;51.992;9.228;2023-04-20T07:05:14;100625.13;;;7.19;96.02
21504;BME280;10913;51.992;9.228;2023-04-20T07:07:40;100623.34;;;7.15;96.37
21504;BME280;10913;51.992;9.228;2023-04-20T07:10:06;100619.97;;;7.27;96.37
21504;BME280;10913;51.992;9.228;2023-04-20T07:12:34;100623.59;;;7.37;95.72
21504;BME280;10913;51.992;9.228;2023-04-20T07:15:01;100628.94;;;7.46;95.74
21504;BME280;10913;51.992;9.228;2023-04-20T07:17:27;100628.13;;;7.50;95.22
21504;BME280;10913;51.992;9.228;2023-04-20T07:19:53;100621.19;;;7.56;95.58
21504;BME280;10913;51.992;9.228;2023-04-20T07:22:19;100620.38;;;7.64;94.95
21504;BME280;10913;51.992;9.228;2023-04-20T07:24:44;100617.00;;;7.75;94.86
21504;BME280;10913;51.992;9.228;2023-04-20T07:27:10;100615.63;;;8.21;93.75
21504;BME280;10913;51.992;9.228;2023-04-20T07:29:35;100612.44;;;8.57;91.00
21504;BME280;10913;51.992;9.228;2023-04-20T07:32:00;100607.38;;;8.97;89.29
21504;BME280;10913;51.992;9.228;2023-04-20T07:34:26;100609.28;;;9.35;88.63
21504;BME280;10913;51.992;9.228;2023-04-20T07:36:51;100604.16;;;10.17;85.65
21504;BME280;10913;51.992;9.228;2023-04-20T07:39:16;100605.03;;;10.54;84.44
21504;BME280;10913;51.992;9.228;2023-04-20T07:41:42;100607.66;;;10.45;83.86
21504;BME280;10913;51.992;9.228;2023-04-20T07:44:08;100614.69;;;10.01;84.09
21504;BME280;10913;51.992;9.228;2023-04-20T07:46:33;100616.38;;;9.63;84.61
21504;BME280;10913;51.992;9.228;2023-04-20T07:48:58;100613.75;;;9.64;85.97
21504;BME280;10913;51.992;9.228;2023-04-20T07:51:24;100624.38;;;10.18;84.77
21504;BME280;10913;51.992;9.228;2023-04-20T07:53:49;100631.44;;;10.31;83.01
21504;BME280;10913;51.992;9.228;2023-04-20T07:56:14;100619.97;;;10.05;82.86
21504;BME280;10913;51.992;9.228;2023-04-20T07:58:40;100633.13;;;9.83;85.12
21504;BME280;10913;51.992;9.228;2023-04-20T08:01:05;100626.06;;;9.62;85.88
21504;BME280;10913;51.992;9.228;2023-04-20T08:03:31;100627.84;;;9.85;86.05
21504;BME280;10913;51.992;9.228;2023-04-20T08:05:57;100629.63;;;9.75;84.68
21504;BME280;10913;51.992;9.228;2023-04-20T08:08:23;100633.09;;;9.62;85.01
21504;BME280;10913;51.992;9.228;2023-04-20T08:10:48;100633.03;;;9.45;85.51
21504;BME280;10913;51.992;9.228;2023-04-20T08:13:14;100627.78;;;9.50;86.20
21504;BME280;10913;51.992;9.228;2023-04-20T08:15:39;100626.09;;;9.72;85.73
21504;BME280;10913;51.992;9.228;2023-04-20T08:18:04;100642.84;;;9.90;84.59
21504;BME280;10913;51.992;9.228;2023-04-20T08:20:30;100638.50;;;10.27;84.10
21504;BME280;10913;51.992;9.228;2023-04-20T08:22:55;100633.13;;;10.79;81.73
21504;BME280;10913;51.992;9.228;2023-04-20T08:25:20;100630.41;;;11.19;79.59
21504;BME280;10913;51.992;9.228;2023-04-20T08:27:46;100636.66;;;10.92;79.70
21504;BME280;10913;51.992;9.228;2023-04-20T08:30:11;100631.44;;;10.49;80.55
21504;BME280;10913;51.992;9.228;2023-04-20T08:32:37;100634.91;;;10.04;81.10
21504;BME280;10913;51.992;9.228;2023-04-20T08:35:03;100633.13;;;9.71;82.81
21504;BME280;10913;51.992;9.228;2023-04-20T08:37:29;100632.19;;;9.49;83.92
21504;BME280;10913;51.992;9.228;2023-04-20T08:39:54;100633.91;;;9.35;85.11
21504;BME280;10913;51.992;9.228;2023-04-20T08:42:19;100631.19;;;9.21;85.20
21504;BME280;10913;51.992;9.228;2023-04-20T08:44:45;100626.78;;;9.14;86.35
21504;BME280;10913;51.992;9.228;2023-04-20T08:47:10;100628.53;;;9.09;84.79
21504;BME280;10913;51.992;9.228;2023-04-20T08:49:37;100635.50;;;9.04;86.44
21504;BME280;10913;51.992;9.228;2023-04-20T08:52:04;100632.94;;;9.16;85.85
21504;BME280;10913;51.992;9.228;2023-04-20T08:54:29;100636.47;;;9.15;85.72
21504;BME280;10913;51.992;9.228;2023-04-20T08:56:55;100632.09;;;9.17;85.80
21504;BME280;10913;51.992;9.228;2023-04-20T08:59:21;100634.72;;;9.26;86.55
21504;BME280;10913;51.992;9.228;2023-04-20T09:01:46;100626.88;;;9.32;85.26
21504;BME280;10913;51.992;9.228;2023-04-20T09:04:24;100637.47;;;9.54;83.37
21504;BME280;10913;51.992;9.228;2023-04-20T09:06:53;100631.38;;;9.76;83.76
21504;BME280;10913;51.992;9.228;2023-04-20T09:09:20;100634.91;;;10.06;82.79
21504;BME280;10913;51.992;9.228;2023-04-20T09:11:46;100639.38;;;10.31;81.80
21504;BME280;10913;51.992;9.228;2023-04-20T09:14:14;100633.19;;;10.53;80.34
21504;BME280;10913;51.992;9.228;2023-04-20T09:16:51;100641.97;;;10.74;79.12
21504;BME280;10913;51.992;9.228;2023-04-20T09:19:23;100634.03;;;10.70;78.83
21504;BME280;10913;51.992;9.228;2023-04-20T09:21:50;100634.94;;;10.63;79.37
21504;BME280;10913;51.992;9.228;2023-04-20T09:24:19;100637.59;;;10.54;79.10
21504;BME280;10913;51.992;9.228;2023-04-20T09:26:44;100644.66;;;10.58;79.61
21504;BME280;10913;51.992;9.228;2023-04-20T09:29:22;100641.09;;;10.78;79.56
21504;BME280;10913;51.992;9.228;2023-04-20T09:31:50;100639.28;;;10.89;80.01
21504;BME280;10913;51.992;9.228;2023-04-20T09:34:16;100649.88;;;10.80;77.87
21504;BME280;10913;51.992;9.228;2023-04-20T09:36:42;100647.22;;;10.83;78.93
21504;BME280;10913;51.992;9.228;2023-04-20T09:39:10;100654.28;;;10.87;79.28
21504;BME280;10913;51.992;9.228;2023-04-20T09:41:37;100641.94;;;10.81;79.49
21504;BME280;10913;51.992;9.228;2023-04-20T09:44:03;100644.63;;;10.63;79.24
21504;BME280;10913;51.992;9.228;2023-04-20T09:46:31;100643.75;;;10.43;78.65
21504;BME280;10913;51.992;9.228;2023-04-20T09:48:58;100650.81;;;10.24;79.66
21504;BME280;10913;51.992;9.228;2023-04-20T09:51:27;100639.34;;;10.22;80.31
21504;BME280;10913;51.992;9.228;2023-04-20T09:53:55;100635.84;;;10.30;79.86
21504;BME280;10913;51.992;9.228;2023-04-20T09:56:20;100647.28;;;10.46;80.64
21504;BME280;10913;51.992;9.228;2023-04-20T09:58:46;100642.84;;;10.68;80.22
21504;BME280;10913;51.992;9.228;2023-04-20T10:01:12;100646.38;;;10.68;78.75
21504;BME280;10913;51.992;9.228;2023-04-20T10:03:40;100639.34;;;10.67;78.28
21504;BME280;10913;51.992;9.228;2023-04-20T10:06:37;100636.69;;;10.77;78.77
21504;BME280;10913;51.992;9.228;2023-04-20T10:09:07;100647.22;;;10.93;78.43
21504;BME280;10913;51.992;9.228;2023-04-20T10:11:35;100632.19;;;11.09;77.43
21504;BME280;10913;51.992;9.228;2023-04-20T10:14:16;100633.94;;;11.13;77.08
21504;BME280;10913;51.992;9.228;2023-04-20T10:16:42;100635.72;;;11.00;74.46
21504;BME280;10913;51.992;9.228;2023-04-20T10:19:07;100634.00;;;10.93;76.25
21504;BME280;10913;51.992;9.228;2023-04-20T10:21:47;100621.69;;;10.82;76.82
21504;BME280;10913;51.992;9.228;2023-04-20T10:24:13;100625.19;;;10.81;77.71
21504;BME280;10913;51.992;9.228;2023-04-20T10:26:41;100626.97;;;10.83;77.33
21504;BME280;10913;51.992;9.228;2023-04-20T10:29:08;100617.28;;;10.82;76.85
21504;BME280;10913;51.992;9.228;2023-04-20T10:31:37;100618.13;;;10.96;76.11
21504;BME280;10913;51.992;9.228;2023-04-20T10:34:04;100616.31;;;11.01;75.59
21504;BME280;10913;51.992;9.228;2023-04-20T10:36:31;100604.84;;;11.15;75.06
21504;BME280;10913;51.992;9.228;2023-04-20T10:38:59;100605.63;;;11.33;74.83
21504;BME280;10913;51.992;9.228;2023-04-20T10:41:27;100600.25;;;11.46;72.43
21504;BME280;10913;51.992;9.228;2023-04-20T10:43:52;100601.97;;;11.59;74.11
21504;BME280;10913;51.992;9.228;2023-04-20T10:46:23;100605.41;;;11.70;74.61
21504;BME280;10913;51.992;9.228;2023-04-20T10:48:53;100610.72;;;11.70;74.19
21504;BME280;10913;51.992;9.228;2023-04-20T10:51:19;100610.81;;;11.52;74.78
21504;BME280;10913;51.992;9.228;2023-04-20T10:53:45;100610.84;;;11.50;74.39
21504;BME280;10913;51.992;9.228;2023-04-20T10:56:10;100615.34;;;11.31;74.71
21504;BME280;10913;51.992;9.228;2023-04-20T10:58:36;100615.34;;;11.31;75.01
21504;BME280;10913;51.992;9.228;2023-04-20T11:01:03;100619.78;;;11.23;74.91
21504;BME280;10913;51.992;9.228;2023-04-20T11:03:30;100625.13;;;11.11;75.28
21504;BME280;10913;51.992;9.228;2023-04-20T11:05:58;100616.31;;;11.12;74.04
21504;BME280;10913;51.992;9.228;2023-04-20T11:08:41;100611.03;;;11.06;74.85
21504;BME280;10913;51.992;9.228;2023-04-20T11:11:21;100614.56;;;11.10;75.31
21504;BME280;10913;51.992;9.228;2023-04-20T11:13:52;100605.75;;;11.08;74.91
21504;BME280;10913;51.992;9.228;2023-04-20T11:16:28;100616.31;;;11.06;75.05
21504;BME280;10913;51.992;9.228;2023-04-20T11:18:54;100618.94;;;11.15;74.48
21504;BME280;10913;51.992;9.228;2023-04-20T11:21:21;100608.31;;;11.20;73.77
21504;BME280;10913;51.992;9.228;2023-04-20T11:23:47;100612.78;;;11.12;74.44
21504;BME280;10913;51.992;9.228;2023-04-20T11:26:13;100612.78;;;11.07;73.56
21504;BME280;10913;51.992;9.228;2023-04-20T11:28:49;100611.84;;;11.22;72.50
21504;BME280;10913;51.992;9.228;2023-04-20T11:31:16;100622.41;;;11.25;71.57
21504;BME280;10913;51.992;9.228;2023-04-20T11:33:42;100599.47;;;11.28;70.59
21504;BME280;10913;51.992;9.228;2023-04-20T11:36:17;100585.38;;;11.31;69.28
21504;BME280;10913;51.992;9.228;2023-04-20T11:38:43;100590.56;;;11.46;71.54
21504;BME280;10913;51.992;9.228;2023-04-20T11:41:08;100588.66;;;11.79;72.26
21504;BME280;10913;51.992;9.228;2023-04-20T11:43:34;100585.78;;;12.01;71.85
21504;BME280;10913;51.992;9.228;2023-04-20T11:46:00;100588.38;;;12.14;72.18
21504;BME280;10913;51.992;9.228;2023-04-20T11:48:29;100592.63;;;12.30;71.55
21504;BME280;10913;51.992;9.228;2023-04-20T11:50:55;100591.72;;;12.35;72.03
21504;BME280;10913;51.992;9.228;2023-04-20T11:53:21;100590.00;;;12.28;71.55
21504;BME280;10913;51.992;9.228;2023-04-20T11:55:46;100590.84;;;12.33;71.00
21504;BME280;10913;51.992;9.228;2023-04-20T11:58:11;100586.44;;;12.31;70.48
21504;BME280;10913;51.992;9.228;2023-04-20T12:00:37;100585.72;;;12.14;69.43
21504;BME280;10913;51.992;9.228;2023-04-20T12:03:02;100589.28;;;12.10;68.97
21504;BME280;10913;51.992;9.228;2023-04-20T12:05:28;100585.75;;;12.07;70.45
21504;BME280;10913;51.992;9.228;2023-04-20T12:07:53;100580.56;;;11.98;68.03
21504;BME280;10913;51.992;9.228;2023-04-20T12:10:19;100578.06;;;11.77;69.73
21504;BME280;10913;51.992;9.228;2023-04-20T12:12:44;100590.38;;;11.80;69.97
21504;BME280;10913;51.992;9.228;2023-04-20T12:15:10;100585.09;;;11.75;70.29
21504;BME280;10913;51.992;9.228;2023-04-20T12:17:35;100597.47;;;11.78;70.92
21504;BME280;10913;51.992;9.228;2023-04-20T12:20:01;100586.88;;;11.73;70.22
21504;BME280;10913;51.992;9.228;2023-04-20T12:22:26;100593.06;;;11.72;70.60
21504;BME280;10913;51.992;9.228;2023-04-20T12:24:52;100591.31;;;11.71;70.25
21504;BME280;10913;51.992;9.228;2023-04-20T12:27:17;100622.19;;;11.77;68.40
21504;BME280;10913;51.992;9.228;2023-04-20T12:29:42;100599.25;;;11.66;67.89
21504;BME280;10913;51.992;9.228;2023-04-20T12:32:08;100599.25;;;11.68;68.56
21504;BME280;10913;51.992;9.228;2023-04-20T12:34:33;100593.94;;;11.69;68.71
21504;BME280;10913;51.992;9.228;2023-04-20T12:36:59;100589.59;;;11.61;68.47
21504;BME280;10913;51.992;9.228;2023-04-20T12:39:25;100582.47;;;11.78;70.75
21504;BME280;10913;51.992;9.228;2023-04-20T12:41:50;100582.44;;;11.81;69.33
21504;BME280;10913;51.992;9.228;2023-04-20T12:44:16;100580.63;;;11.86;69.15
21504;BME280;10913;51.992;9.228;2023-04-20T12:46:41;100573.53;;;11.91;69.82
21504;BME280;10913;51.992;9.228;2023-04-20T12:49:06;100568.19;;;11.99;70.05
21504;BME280;10913;51.992;9.228;2023-04-20T12:51:32;100569.81;;;12.14;70.39
21504;BME280;10913;51.992;9.228;2023-04-20T12:53:57;100558.94;;;12.44;70.44